Time;durP1;ratioP1;P1;durP2;ratioP2;P2;SDS_P1;SDS_P2;PMS_P1;PMS_P2;Temp;Humidity;BMP_temperature;BMP_pressure;BME280_temperature;BME280_humidity;BME280_pressure;Samples;Min_cycle;Max_cycle;Signal;HPM_P1;HPM_P2
2021/11/29 00:02:22;;;;;;;29.98;15.73;;;1.60;99.90;;;;;;5039514;28;20418;-54
2021/11/29 00:04:50;;;;;;;23.98;15.57;;;1.60;99.90;;;;;;5022097;28;20302;-53
2021/11/29 00:07:17;;;;;;;26.65;18.52;;;1.60;99.90;;;;;;5039216;28;20319;-55
2021/11/29 00:09:45;;;;;;;21.13;15.40;;;1.70;99.90;;;;;;5039196;28;20311;-54
2021/11/29 00:12:12;;;;;;;31.95;16.80;;;1.60;99.90;;;;;;5038908;28;20201;-55
2021/11/29 00:14:39;;;;;;;27.48;17.67;;;1.50;99.90;;;;;;5039352;28;20208;-58
2021/11/29 00:17:07;;;;;;;26.02;16.25;;;1.60;99.90;;;;;;5038946;28;20237;-55
2021/11/29 00:19:35;;;;;;;26.80;17.67;;;1.70;99.90;;;;;;5039294;28;20224;-57
2021/11/29 00:22:02;;;;;;;23.55;15.40;;;1.80;99.90;;;;;;5039637;28;20201;-56
2021/11/29 00:24:30;;;;;;;23.33;14.50;;;1.80;99.90;;;;;;5039224;28;20227;-57
2021/11/29 00:26:57;;;;;;;24.35;15.63;;;1.80;99.90;;;;;;5039444;28;20196;-55
2021/11/29 00:29:25;;;;;;;24.95;15.45;;;1.70;99.90;;;;;;5039071;28;20230;-55
2021/11/29 00:31:52;;;;;;;30.92;16.58;;;1.60;99.90;;;;;;5040532;28;20442;-52
2021/11/29 00:34:21;;;;;;;24.85;16.80;;;1.60;99.90;;;;;;5042778;28;20200;-52
2021/11/29 00:36:48;;;;;;;26.52;18.33;;;1.60;99.90;;;;;;5044317;28;20413;-48
2021/11/29 00:39:17;;;;;;;22.60;14.55;;;1.60;99.90;;;;;;5042816;28;20224;-50
2021/11/29 00:41:45;;;;;;;27.00;17.38;;;1.60;99.90;;;;;;5042455;28;20469;-54
2021/11/29 00:44:13;;;;;;;24.75;14.88;;;1.60;99.90;;;;;;5042512;28;20423;-53
2021/11/29 00:46:40;;;;;;;24.17;16.92;;;1.60;99.90;;;;;;5042601;28;20235;-52
2021/11/29 00:49:08;;;;;;;25.20;16.83;;;1.70;99.90;;;;;;5042449;28;20224;-51
2021/11/29 00:51:35;;;;;;;26.95;18.52;;;1.70;99.90;;;;;;5042780;28;20349;-55
2021/11/29 00:54:03;;;;;;;25.58;15.90;;;1.70;99.90;;;;;;5041788;28;20196;-51
2021/11/29 00:56:31;;;;;;;20.77;13.90;;;1.70;99.90;;;;;;5042984;28;20200;-56
2021/11/29 00:58:58;;;;;;;24.25;15.38;;;1.70;99.90;;;;;;5041802;28;20258;-54
2021/11/29 01:01:25;;;;;;;32.08;17.77;;;1.70;99.90;;;;;;5042444;28;20196;-54
2021/11/29 01:03:53;;;;;;;31.45;18.90;;;1.70;99.90;;;;;;5041719;28;20204;-58
2021/11/29 01:06:20;;;;;;;25.05;16.35;;;1.70;99.90;;;;;;5024756;28;20195;-55
2021/11/29 01:08:48;;;;;;;30.48;18.00;;;1.60;99.90;;;;;;5042427;28;20220;-55
2021/11/29 01:11:15;;;;;;;26.98;17.02;;;1.70;99.90;;;;;;5041984;28;20200;-55
2021/11/29 01:13:43;;;;;;;32.08;17.65;;;1.70;99.90;;;;;;5042610;28;20427;-56
2021/11/29 01:16:10;;;;;;;22.55;15.98;;;1.60;99.90;;;;;;5041535;28;20203;-56
2021/11/29 01:18:38;;;;;;;25.77;17.70;;;1.60;99.90;;;;;;5042065;28;20220;-51
2021/11/29 01:21:07;;;;;;;26.63;15.93;;;1.60;99.90;;;;;;5041575;28;20300;-55
2021/11/29 01:23:34;;;;;;;29.73;17.95;;;1.60;99.90;;;;;;5042254;28;20234;-52
2021/11/29 01:26:02;;;;;;;25.45;15.95;;;1.50;99.90;;;;;;5041981;28;20207;-53
2021/11/29 01:28:30;;;;;;;26.38;15.40;;;1.50;99.90;;;;;;5041562;28;20642;-55
2021/11/29 01:30:57;;;;;;;31.92;17.83;;;1.60;99.90;;;;;;5041693;28;20200;-53
2021/11/29 01:33:24;;;;;;;26.65;18.23;;;1.60;99.90;;;;;;5041684;28;20268;-57
2021/11/29 01:35:52;;;;;;;23.60;16.70;;;1.60;99.90;;;;;;5041842;28;20247;-55
2021/11/29 01:38:20;;;;;;;22.83;15.57;;;1.60;99.90;;;;;;5041980;28;20204;-55
2021/11/29 01:40:47;;;;;;;25.13;15.93;;;1.70;99.90;;;;;;5023849;28;20589;-52
2021/11/29 01:43:17;;;;;;;28.17;16.85;;;1.60;99.90;;;;;;5043522;28;20203;-53
2021/11/29 01:45:48;;;;;;;29.00;17.85;;;1.60;99.90;;;;;;5043324;28;20494;-55
2021/11/29 01:48:15;;;;;;;24.15;15.55;;;1.50;99.90;;;;;;5044922;28;20216;-59
2021/11/29 01:50:46;;;;;;;29.15;17.85;;;1.60;99.90;;;;;;5024087;28;20228;-51
2021/11/29 01:53:16;;;;;;;23.23;17.25;;;1.50;99.90;;;;;;5041136;28;20446;-54
2021/11/29 01:55:44;;;;;;;32.22;18.45;;;1.40;99.90;;;;;;5041184;28;20274;-52
2021/11/29 01:58:12;;;;;;;26.05;18.45;;;1.50;99.90;;;;;;5030910;28;20209;-55
2021/11/29 02:00:48;;;;;;;27.98;18.55;;;1.40;99.90;;;;;;5037480;28;20439;-56
2021/11/29 02:03:17;;;;;;;32.10;19.25;;;1.50;99.90;;;;;;5020978;28;20196;-55
2021/11/29 02:05:45;;;;;;;25.95;17.15;;;1.50;99.90;;;;;;5021123;28;20197;-53
2021/11/29 02:08:12;;;;;;;24.50;16.63;;;1.50;99.90;;;;;;5020856;28;20236;-56
2021/11/29 02:10:39;;;;;;;31.10;19.90;;;1.40;99.90;;;;;;5021142;28;20392;-50
2021/11/29 02:13:08;;;;;;;31.27;18.80;;;1.40;99.90;;;;;;5021250;28;20316;-56
2021/11/29 02:15:37;;;;;;;34.88;19.88;;;1.40;99.90;;;;;;5020887;28;20205;-58
2021/11/29 02:18:08;;;;;;;36.25;22.08;;;1.50;99.90;;;;;;5021180;28;20272;-57
2021/11/29 02:20:36;;;;;;;32.22;18.55;;;1.40;99.90;;;;;;5020648;28;20217;-55
2021/11/29 02:23:06;;;;;;;29.85;20.00;;;1.50;99.90;;;;;;5020786;28;20201;-54
2021/11/29 02:25:33;;;;;;;30.85;18.50;;;1.40;99.90;;;;;;5036702;28;20204;-56
2021/11/29 02:28:00;;;;;;;34.38;18.33;;;1.50;99.90;;;;;;5020910;28;20205;-54
2021/11/29 02:30:28;;;;;;;35.85;21.25;;;1.50;99.90;;;;;;5020799;28;20408;-54
2021/11/29 02:32:55;;;;;;;31.85;19.58;;;1.40;99.90;;;;;;5020714;28;20208;-57
2021/11/29 02:35:23;;;;;;;29.70;19.02;;;1.50;99.90;;;;;;5020958;28;20438;-52
2021/11/29 02:37:52;;;;;;;30.23;18.95;;;1.50;99.90;;;;;;5020430;28;20213;-55
2021/11/29 02:40:19;;;;;;;37.28;21.00;;;1.50;99.90;;;;;;5020777;28;20224;-54
2021/11/29 02:42:46;;;;;;;30.35;18.63;;;1.50;99.90;;;;;;5028685;28;20220;-55
2021/11/29 02:45:14;;;;;;;32.13;19.27;;;1.50;99.90;;;;;;5036144;28;20530;-52
2021/11/29 02:47:41;;;;;;;33.08;22.73;;;1.50;99.90;;;;;;5040643;28;20545;-52
2021/11/29 02:50:09;;;;;;;34.38;20.15;;;1.50;99.90;;;;;;5039506;28;20543;-56
2021/11/29 02:52:36;;;;;;;37.35;23.02;;;1.40;99.90;;;;;;5040601;28;20323;-53
2021/11/29 02:55:04;;;;;;;35.30;20.98;;;1.40;99.90;;;;;;5039768;28;20341;-54
2021/11/29 02:57:31;;;;;;;32.00;17.15;;;1.40;99.90;;;;;;5039705;28;20475;-55
2021/11/29 02:59:59;;;;;;;32.30;18.00;;;1.40;99.90;;;;;;5039657;28;20650;-51
2021/11/29 03:02:31;;;;;;;35.63;21.77;;;1.40;99.90;;;;;;5039911;28;20530;-52
2021/11/29 03:05:03;;;;;;;34.15;21.70;;;1.40;99.90;;;;;;5039928;28;20189;-52
2021/11/29 03:07:30;;;;;;;36.85;23.00;;;1.30;99.90;;;;;;5039664;28;20204;-53
2021/11/29 03:09:58;;;;;;;34.70;21.30;;;1.30;99.90;;;;;;5039896;28;20220;-54
2021/11/29 03:12:26;;;;;;;34.53;20.83;;;1.30;99.90;;;;;;5039763;28;20246;-49
2021/11/29 03:14:53;;;;;;;40.25;22.48;;;1.40;99.90;;;;;;5039722;28;20204;-53
2021/11/29 03:17:21;;;;;;;34.78;20.20;;;1.30;99.90;;;;;;5039820;28;20212;-53
2021/11/29 03:19:48;;;;;;;32.75;20.55;;;1.40;99.90;;;;;;5039886;28;20224;-51
2021/11/29 03:22:15;;;;;;;36.42;20.00;;;1.40;99.90;;;;;;5039801;28;20223;-54
2021/11/29 03:24:46;;;;;;;35.17;18.38;;;1.40;99.90;;;;;;5039546;28;20196;-52
2021/11/29 03:27:15;;;;;;;36.58;20.13;;;1.40;99.90;;;;;;5039971;28;20263;-49
2021/11/29 03:29:47;;;;;;;37.15;20.70;;;1.40;99.90;;;;;;5039262;28;20223;-53
2021/11/29 03:32:15;;;;;;;31.05;19.83;;;1.40;99.90;;;;;;5039718;28;20204;-50
2021/11/29 03:34:43;;;;;;;33.80;20.20;;;1.40;99.90;;;;;;5039759;28;20390;-53
2021/11/29 03:37:10;;;;;;;29.45;19.40;;;1.40;99.90;;;;;;5039723;28;20204;-51
2021/11/29 03:39:38;;;;;;;30.27;18.38;;;1.40;99.90;;;;;;5039611;28;20254;-55
2021/11/29 03:42:05;;;;;;;31.40;20.88;;;1.40;99.90;;;;;;5038980;28;20399;-53
2021/11/29 03:44:35;;;;;;;29.40;20.83;;;1.30;99.90;;;;;;5039553;28;20343;-53
2021/11/29 03:47:04;;;;;;;34.45;19.35;;;1.30;99.90;;;;;;5038895;28;20204;-51
2021/11/29 03:49:33;;;;;;;32.00;21.17;;;1.30;99.90;;;;;;5039544;28;20259;-54
2021/11/29 03:52:00;;;;;;;34.53;20.90;;;1.30;99.90;;;;;;5039345;28;20510;-54
2021/11/29 03:54:28;;;;;;;29.00;19.77;;;1.30;99.90;;;;;;5038845;28;20323;-55
2021/11/29 03:56:55;;;;;;;32.10;18.92;;;1.30;99.90;;;;;;5040419;28;20324;-53
2021/11/29 03:59:23;;;;;;;31.33;18.38;;;1.30;99.90;;;;;;5041620;28;20223;-54
2021/11/29 04:01:50;;;;;;;33.20;19.20;;;1.30;99.90;;;;;;5041084;28;20526;-53
2021/11/29 04:04:18;;;;;;;31.52;18.13;;;1.30;99.90;;;;;;5039133;28;20276;-55
2021/11/29 04:06:45;;;;;;;31.85;21.13;;;1.40;99.90;;;;;;5039333;28;20204;-55
2021/11/29 04:09:13;;;;;;;35.72;21.63;;;1.40;99.90;;;;;;5040312;28;20506;-51
2021/11/29 04:11:40;;;;;;;32.45;18.10;;;1.30;99.90;;;;;;5043754;28;20204;-54
2021/11/29 04:14:07;;;;;;;26.42;17.38;;;1.30;99.90;;;;;;5044700;28;20246;-56
2021/11/29 04:16:35;;;;;;;26.52;16.73;;;1.30;99.90;;;;;;5044528;28;20203;-56
2021/11/29 04:19:03;;;;;;;30.88;19.40;;;1.30;99.90;;;;;;5043500;28;20275;-52
2021/11/29 04:21:31;;;;;;;32.85;19.17;;;1.30;99.90;;;;;;5043008;28;20231;-54
2021/11/29 04:23:58;;;;;;;28.10;19.38;;;1.20;99.90;;;;;;5043052;28;20254;-52
2021/11/29 04:26:27;;;;;;;30.15;18.73;;;1.20;99.90;;;;;;5043165;28;20200;-51
2021/11/29 04:28:55;;;;;;;33.80;19.45;;;1.20;99.90;;;;;;5042771;28;20261;-51
2021/11/29 04:31:23;;;;;;;33.88;17.88;;;1.20;99.90;;;;;;5043068;28;20207;-54
2021/11/29 04:33:50;;;;;;;25.92;16.75;;;1.30;99.90;;;;;;5042745;28;20199;-51
2021/11/29 04:36:18;;;;;;;32.88;19.10;;;1.30;99.90;;;;;;5042584;28;20201;-55
2021/11/29 04:38:45;;;;;;;30.67;20.00;;;1.20;99.90;;;;;;5042655;28;20200;-56
2021/11/29 04:41:13;;;;;;;25.17;17.45;;;1.20;99.90;;;;;;5042627;28;20479;-56
2021/11/29 04:43:40;;;;;;;30.15;18.33;;;1.20;99.90;;;;;;5043204;28;20196;-57
2021/11/29 04:46:08;;;;;;;30.73;19.85;;;1.20;99.90;;;;;;5042184;28;20235;-56
2021/11/29 04:48:36;;;;;;;22.70;16.75;;;1.20;99.90;;;;;;5025729;28;20251;-55
2021/11/29 04:51:04;;;;;;;29.38;18.17;;;1.20;99.90;;;;;;5042336;28;20200;-57
2021/11/29 04:53:31;;;;;;;29.50;18.58;;;1.10;99.90;;;;;;5042662;28;20235;-53
2021/11/29 04:55:58;;;;;;;35.42;22.40;;;1.20;99.90;;;;;;5042272;28;20219;-56
2021/11/29 04:58:26;;;;;;;30.02;16.73;;;1.20;99.90;;;;;;5042087;28;20238;-57
2021/11/29 05:00:53;;;;;;;21.70;14.27;;;1.20;99.90;;;;;;5038684;28;20597;-57
2021/11/29 05:03:21;;;;;;;31.35;17.08;;;1.10;99.90;;;;;;5040611;28;20192;-56
2021/11/29 05:05:49;;;;;;;27.50;15.77;;;1.00;99.90;;;;;;5022769;28;20212;-56
2021/11/29 05:08:30;;;;;;;28.45;14.55;;;1.10;99.90;;;;;;5022615;28;20197;-56
2021/11/29 05:10:57;;;;;;;22.75;14.30;;;1.00;99.90;;;;;;5022596;28;20224;-55
2021/11/29 05:13:25;;;;;;;19.33;13.52;;;1.00;99.90;;;;;;5023253;28;20440;-54
2021/11/29 05:15:52;;;;;;;33.15;16.98;;;1.00;99.90;;;;;;5041423;28;20204;-52
2021/11/29 05:18:20;;;;;;;24.08;16.85;;;1.00;99.90;;;;;;5042049;28;20214;-56
2021/11/29 05:20:47;;;;;;;35.20;17.10;;;1.10;99.90;;;;;;5041336;28;20459;-56
2021/11/29 05:23:17;;;;;;;29.95;17.35;;;1.10;99.90;;;;;;5042132;28;20235;-58
2021/11/29 05:25:45;;;;;;;24.55;15.93;;;1.10;99.90;;;;;;5042895;28;20197;-54
2021/11/29 05:28:13;;;;;;;27.45;15.10;;;1.10;99.90;;;;;;5042631;28;20197;-58
2021/11/29 05:30:40;;;;;;;21.33;14.90;;;1.00;99.90;;;;;;5040169;28;20269;-54
2021/11/29 05:33:08;;;;;;;28.40;16.52;;;1.00;99.90;;;;;;5036560;28;20429;-54
2021/11/29 05:35:36;;;;;;;29.92;16.20;;;1.00;99.90;;;;;;5037240;28;20503;-54
2021/11/29 05:38:04;;;;;;;20.50;15.50;;;1.00;99.90;;;;;;5035301;28;20224;-57
2021/11/29 05:40:31;;;;;;;22.35;15.55;;;1.00;99.90;;;;;;5022313;28;20271;-52
2021/11/29 05:42:59;;;;;;;26.05;16.70;;;1.00;99.90;;;;;;5024300;28;20220;-56
2021/11/29 05:45:26;;;;;;;24.88;15.45;;;1.10;99.90;;;;;;5022798;28;20204;-53
2021/11/29 05:47:54;;;;;;;24.13;15.80;;;1.10;99.90;;;;;;5036815;28;20212;-57
2021/11/29 05:50:22;;;;;;;33.70;16.45;;;1.10;99.90;;;;;;5021291;28;20213;-56
2021/11/29 05:52:49;;;;;;;22.92;14.05;;;1.10;99.90;;;;;;5034084;28;20534;-54
2021/11/29 05:55:17;;;;;;;20.08;12.07;;;1.00;99.90;;;;;;5024819;28;20205;-57
2021/11/29 05:57:45;;;;;;;22.42;14.63;;;1.00;99.90;;;;;;5021453;28;20239;-57
2021/11/29 06:00:16;;;;;;;24.30;14.10;;;0.90;99.90;;;;;;5021179;28;20216;-57
2021/11/29 06:02:43;;;;;;;25.83;15.15;;;0.90;99.90;;;;;;5023184;28;20201;-57
2021/11/29 06:05:29;;;;;;;20.75;14.00;;;1.00;99.90;;;;;;5028177;28;20203;-59
2021/11/29 06:07:56;;;;;;;25.15;15.32;;;1.00;99.90;;;;;;5039256;28;20204;-56
2021/11/29 06:10:24;;;;;;;19.00;13.20;;;1.00;99.90;;;;;;5033723;28;20223;-56
2021/11/29 06:12:52;;;;;;;15.00;10.73;;;1.00;99.90;;;;;;5036510;28;20545;-54
2021/11/29 06:15:20;;;;;;;21.80;13.15;;;0.90;99.90;;;;;;5037412;28;20204;-54
2021/11/29 06:17:47;;;;;;;21.35;13.80;;;0.90;99.90;;;;;;5040356;28;20238;-54
2021/11/29 06:20:20;;;;;;;24.13;15.05;;;0.90;99.90;;;;;;5040436;28;20220;-57
2021/11/29 06:22:55;;;;;;;21.23;14.00;;;1.00;99.90;;;;;;5036732;28;20208;-57
2021/11/29 06:25:23;;;;;;;22.60;14.35;;;0.90;99.90;;;;;;5038461;28;20208;-56
2021/11/29 06:27:51;;;;;;;21.42;13.45;;;0.90;99.90;;;;;;5041006;28;20200;-58
2021/11/29 06:30:19;;;;;;;21.10;13.55;;;0.90;99.90;;;;;;5024006;28;20464;-57
2021/11/29 06:32:49;;;;;;;18.73;12.55;;;0.90;99.90;;;;;;5020256;28;20205;-58
2021/11/29 06:35:17;;;;;;;22.40;12.98;;;0.90;99.90;;;;;;5020402;28;20196;-57
2021/11/29 06:37:49;;;;;;;23.73;12.80;;;0.90;99.90;;;;;;5033570;28;20475;-56
2021/11/29 06:40:17;;;;;;;23.85;16.20;;;0.90;99.90;;;;;;5032187;28;20225;-56
2021/11/29 06:42:44;;;;;;;23.75;15.40;;;0.90;99.90;;;;;;5020334;28;20252;-56
2021/11/29 06:45:13;;;;;;;30.38;16.00;;;0.90;99.90;;;;;;5020580;28;20550;-54
2021/11/29 06:47:42;;;;;;;23.52;18.25;;;0.90;99.90;;;;;;5031623;28;20193;-55
2021/11/29 06:50:11;;;;;;;22.52;14.38;;;1.00;99.90;;;;;;5024841;28;20217;-55
2021/11/29 06:52:39;;;;;;;27.23;16.00;;;0.90;99.90;;;;;;5020452;28;20283;-55
2021/11/29 06:55:08;;;;;;;23.80;16.58;;;0.90;99.90;;;;;;5020389;28;20212;-57
2021/11/29 06:57:35;;;;;;;25.15;16.83;;;0.90;99.90;;;;;;5020861;28;20200;-52
2021/11/29 07:00:06;;;;;;;26.63;16.13;;;1.00;99.90;;;;;;5020102;28;20454;-56
2021/11/29 07:02:33;;;;;;;20.98;13.43;;;1.00;99.90;;;;;;5020736;28;20232;-58
2021/11/29 07:05:00;;;;;;;26.40;17.20;;;0.90;99.90;;;;;;5031366;28;20200;-57
2021/11/29 07:07:28;;;;;;;25.95;16.17;;;1.00;99.90;;;;;;5038997;28;20206;-56
2021/11/29 07:09:55;;;;;;;21.10;15.43;;;0.90;99.90;;;;;;5033770;28;20544;-53
2021/11/29 07:12:22;;;;;;;25.10;15.10;;;0.90;99.90;;;;;;5037285;28;20238;-56
2021/11/29 07:14:49;;;;;;;27.38;17.92;;;0.90;99.90;;;;;;5040147;28;20204;-54
2021/11/29 07:17:17;;;;;;;25.70;17.35;;;0.90;99.90;;;;;;5039481;28;20632;-58
2021/11/29 07:19:49;;;;;;;26.00;16.38;;;0.80;99.90;;;;;;5038470;28;20676;-55
2021/11/29 07:22:17;;;;;;;23.52;13.43;;;0.80;99.90;;;;;;5041832;28;20226;-57
2021/11/29 07:24:44;;;;;;;25.15;15.02;;;0.80;99.90;;;;;;5042093;28;20415;-51
2021/11/29 07:27:11;;;;;;;19.45;13.80;;;0.90;99.90;;;;;;5038929;28;20702;-55
2021/11/29 07:29:38;;;;;;;16.73;12.35;;;0.70;99.90;;;;;;5039694;28;20216;-53
2021/11/29 07:32:06;;;;;;;29.08;13.10;;;0.70;99.90;;;;;;5039797;28;20200;-53
2021/11/29 07:34:34;;;;;;;17.40;12.98;;;0.60;99.90;;;;;;5039976;28;20214;-53
2021/11/29 07:37:01;;;;;;;30.20;14.23;;;0.50;99.90;;;;;;5040254;28;20196;-56
2021/11/29 07:39:29;;;;;;;24.92;13.68;;;0.60;99.90;;;;;;5040026;28;20231;-56
2021/11/29 07:41:58;;;;;;;27.42;14.48;;;0.60;99.90;;;;;;5039829;28;20230;-53
2021/11/29 07:44:25;;;;;;;20.20;14.23;;;0.70;99.90;;;;;;5042171;28;20300;-55
2021/11/29 07:46:53;;;;;;;27.73;14.38;;;0.80;99.90;;;;;;5036634;28;20200;-53
2021/11/29 07:49:20;;;;;;;20.98;12.60;;;0.90;99.90;;;;;;5036079;28;20264;-58
2021/11/29 07:51:48;;;;;;;18.92;13.63;;;0.90;99.90;;;;;;5035339;28;20245;-53
2021/11/29 07:54:15;;;;;;;18.77;16.02;;;0.90;99.90;;;;;;5043278;28;20227;-59
2021/11/29 07:56:43;;;;;;;30.27;16.40;;;1.00;99.90;;;;;;5043527;28;20204;-57
2021/11/29 07:59:10;;;;;;;29.52;16.45;;;1.00;99.90;;;;;;5042752;28;20603;-57
2021/11/29 08:01:37;;;;;;;23.52;14.02;;;1.10;99.90;;;;;;5043034;28;20220;-52
2021/11/29 08:04:05;;;;;;;28.98;15.52;;;1.20;99.90;;;;;;5042265;28;20211;-57
2021/11/29 08:06:32;;;;;;;24.75;16.30;;;1.20;99.90;;;;;;5042605;28;20394;-57
2021/11/29 08:09:00;;;;;;;20.30;15.02;;;1.30;99.90;;;;;;5042472;28;20235;-54
2021/11/29 08:11:27;;;;;;;25.33;13.05;;;1.20;99.90;;;;;;5042604;28;20200;-56
2021/11/29 08:13:55;;;;;;;20.58;15.60;;;1.20;99.90;;;;;;5042628;28;20395;-55
2021/11/29 08:16:22;;;;;;;27.42;15.00;;;1.20;99.90;;;;;;5042342;28;20208;-52
2021/11/29 08:18:49;;;;;;;22.77;13.80;;;1.20;99.90;;;;;;5037504;28;20442;-54
2021/11/29 08:21:37;;;;;;;26.98;16.15;;;1.10;99.90;;;;;;5041934;28;20224;-54
2021/11/29 08:24:05;;;;;;;22.08;16.17;;;1.10;99.90;;;;;;5042148;28;20200;-57
2021/11/29 08:26:37;;;;;;;25.48;17.52;;;1.20;99.90;;;;;;5042065;28;20258;-52
2021/11/29 08:29:05;;;;;;;22.63;14.10;;;1.20;99.90;;;;;;5042440;28;20695;-54
2021/11/29 08:31:32;;;;;;;22.42;14.30;;;1.20;99.90;;;;;;5042587;28;20254;-60
2021/11/29 08:34:00;;;;;;;25.70;15.52;;;1.20;99.90;;;;;;5042459;28;20211;-55
2021/11/29 08:36:27;;;;;;;25.55;14.60;;;1.20;99.90;;;;;;5042857;28;20224;-55
2021/11/29 08:38:55;;;;;;;23.42;15.15;;;1.30;99.90;;;;;;5042394;28;20624;-56
2021/11/29 08:41:22;;;;;;;19.75;14.20;;;1.30;99.90;;;;;;5042353;28;20220;-52
2021/11/29 08:43:49;;;;;;;24.00;14.40;;;1.50;99.90;;;;;;5039624;28;20207;-52
2021/11/29 08:46:17;;;;;;;29.02;16.65;;;1.60;99.90;;;;;;5042230;28;20204;-55
2021/11/29 08:48:45;;;;;;;25.15;16.05;;;1.60;99.90;;;;;;5041629;28;20211;-60
2021/11/29 08:51:12;;;;;;;28.92;16.38;;;1.70;99.90;;;;;;5042077;28;20196;-54
2021/11/29 08:53:39;;;;;;;23.90;15.18;;;1.70;99.90;;;;;;5041985;28;20242;-50
2021/11/29 08:56:07;;;;;;;30.40;17.42;;;1.70;99.90;;;;;;5040312;28;20208;-55
2021/11/29 08:58:35;;;;;;;24.10;16.00;;;1.90;99.90;;;;;;5041990;28;20196;-55
2021/11/29 09:01:05;;;;;;;30.27;17.95;;;2.00;99.90;;;;;;5039893;28;20208;-52
2021/11/29 09:03:32;;;;;;;26.40;15.75;;;2.20;99.90;;;;;;5041832;28;20196;-54
2021/11/29 09:06:00;;;;;;;27.90;15.35;;;2.10;99.90;;;;;;5041196;28;20200;-56
2021/11/29 09:08:29;;;;;;;23.05;14.13;;;2.10;99.90;;;;;;5041329;28;20204;-53
2021/11/29 09:10:56;;;;;;;22.98;15.23;;;2.10;99.90;;;;;;5042650;28;20196;-58
2021/11/29 09:13:38;;;;;;;23.65;16.00;;;2.00;99.90;;;;;;5042174;28;20204;-55
2021/11/29 09:16:08;;;;;;;28.60;16.23;;;1.90;99.90;;;;;;5041727;28;20439;-54
2021/11/29 09:18:37;;;;;;;23.42;15.32;;;1.90;99.90;;;;;;5041432;28;20283;-53
2021/11/29 09:21:04;;;;;;;23.83;15.07;;;2.00;99.90;;;;;;5041335;28;20204;-52
2021/11/29 09:23:33;;;;;;;31.00;15.90;;;2.00;99.90;;;;;;5041229;28;20244;-52
2021/11/29 09:26:01;;;;;;;28.50;14.43;;;2.10;99.90;;;;;;5040951;28;20267;-55
2021/11/29 09:28:29;;;;;;;22.17;14.32;;;2.30;99.90;;;;;;5041120;28;20203;-51
2021/11/29 09:30:57;;;;;;;25.10;14.90;;;2.40;99.90;;;;;;5041261;28;20200;-53
2021/11/29 09:33:24;;;;;;;29.70;15.55;;;2.50;99.90;;;;;;5040918;28;20275;-54
2021/11/29 09:35:51;;;;;;;21.33;13.27;;;2.50;99.90;;;;;;5038407;28;20281;-53
2021/11/29 09:38:19;;;;;;;28.55;18.20;;;2.70;99.90;;;;;;5041413;28;20231;-53
2021/11/29 09:40:48;;;;;;;28.92;18.20;;;2.90;99.90;;;;;;5041082;28;20597;-51
2021/11/29 09:43:17;;;;;;;32.70;18.48;;;2.90;99.90;;;;;;5040531;28;20232;-55
2021/11/29 09:45:48;;;;;;;23.73;14.60;;;3.00;99.90;;;;;;5039804;28;20201;-54
2021/11/29 09:48:17;;;;;;;31.85;19.73;;;3.10;99.90;;;;;;5040340;28;20258;-51
2021/11/29 09:50:48;;;;;;;23.70;14.77;;;3.10;99.90;;;;;;5040414;28;20215;-57
2021/11/29 09:53:18;;;;;;;33.28;17.25;;;2.90;99.90;;;;;;5040216;28;20282;-54
2021/11/29 09:55:46;;;;;;;26.02;17.88;;;2.90;99.90;;;;;;5035197;28;20235;-56
2021/11/29 09:58:13;;;;;;;21.63;14.40;;;2.80;99.90;;;;;;5036372;28;20254;-54
2021/11/29 10:00:45;;;;;;;28.15;17.30;;;2.70;99.90;;;;;;5029065;28;20248;-54
2021/11/29 10:03:12;;;;;;;22.75;14.85;;;2.60;99.90;;;;;;5021648;28;20256;-56
2021/11/29 10:05:40;;;;;;;30.15;15.00;;;2.50;99.90;;;;;;5021675;28;20220;-55
2021/11/29 10:08:22;;;;;;;28.27;15.70;;;2.30;99.90;;;;;;5041330;28;20197;-52
2021/11/29 10:11:12;;;;;;;24.23;16.90;;;2.30;99.90;;;;;;5021324;28;20205;-55
2021/11/29 10:13:56;;;;;;;18.83;12.65;;;2.30;99.90;;;;;;5021154;28;20205;-55
2021/11/29 10:16:40;;;;;;;22.80;13.25;;;2.30;99.90;;;;;;5020226;28;20636;-55
2021/11/29 10:19:31;;;;;;;19.35;12.00;;;2.30;99.90;;;;;;5020772;28;20229;-56
2021/11/29 10:22:17;;;;;;;22.48;13.88;;;2.30;99.90;;;;;;5020518;28;20287;-56
2021/11/29 10:24:46;;;;;;;22.60;13.13;;;2.30;99.90;;;;;;5020743;28;20514;-55
2021/11/29 10:27:14;;;;;;;18.95;11.45;;;2.40;99.90;;;;;;5020456;28;20255;-53
2021/11/29 10:29:56;;;;;;;23.75;14.05;;;2.30;99.90;;;;;;5020542;28;20217;-55
2021/11/29 10:32:41;;;;;;;21.65;13.82;;;2.30;99.90;;;;;;5020742;28;20213;-53
2021/11/29 10:35:10;;;;;;;20.42;12.60;;;2.20;99.90;;;;;;5020330;28;20247;-52
2021/11/29 10:37:39;;;;;;;25.88;15.65;;;2.20;99.90;;;;;;5020696;28;20236;-54
2021/11/29 10:40:09;;;;;;;21.67;12.95;;;2.30;99.90;;;;;;5022249;28;20293;-54
2021/11/29 10:42:37;;;;;;;19.10;12.55;;;2.30;99.90;;;;;;5026330;28;20224;-55
2021/11/29 10:45:07;;;;;;;27.23;15.10;;;2.30;99.90;;;;;;5023657;28;20516;-55
2021/11/29 10:47:35;;;;;;;17.60;13.02;;;2.30;99.90;;;;;;5022720;28;20197;-57
2021/11/29 10:50:06;;;;;;;23.10;11.32;;;2.30;99.90;;;;;;5020234;28;20271;-50
2021/11/29 10:52:33;;;;;;;21.17;13.70;;;2.30;99.90;;;;;;5020475;28;20435;-55
2021/11/29 10:55:03;;;;;;;23.25;13.63;;;2.30;99.90;;;;;;5019992;28;20216;-54
2021/11/29 10:57:30;;;;;;;26.77;13.23;;;2.40;99.90;;;;;;5019859;28;20205;-54
2021/11/29 10:59:58;;;;;;;24.23;13.85;;;2.30;99.90;;;;;;5020476;28;20271;-52
2021/11/29 11:02:27;;;;;;;22.42;13.18;;;2.40;99.90;;;;;;5020388;28;20228;-55
2021/11/29 11:05:06;;;;;;;17.55;11.02;;;2.40;99.90;;;;;;5019687;28;20197;-55
2021/11/29 11:07:35;;;;;;;23.40;13.25;;;2.30;99.90;;;;;;5020487;28;20425;-53
2021/11/29 11:10:09;;;;;;;19.83;12.27;;;2.40;99.90;;;;;;5019805;28;20255;-54
2021/11/29 11:12:37;;;;;;;22.00;12.90;;;2.50;99.90;;;;;;5020326;28;20222;-55
2021/11/29 11:15:19;;;;;;;19.00;10.73;;;2.50;99.90;;;;;;5019456;28;20201;-55
2021/11/29 11:18:03;;;;;;;15.30;10.95;;;2.50;99.90;;;;;;5019429;28;20268;-53
2021/11/29 11:20:30;;;;;;;17.13;11.32;;;2.40;99.90;;;;;;5019597;28;20608;-54
2021/11/29 11:22:58;;;;;;;17.67;9.52;;;2.40;99.90;;;;;;5019797;28;20224;-55
2021/11/29 11:25:33;;;;;;;20.90;11.55;;;2.40;99.90;;;;;;5021743;28;20221;-58
2021/11/29 11:28:05;;;;;;;15.15;8.93;;;2.50;99.90;;;;;;5023234;28;20196;-53
2021/11/29 11:30:37;;;;;;;17.98;10.07;;;2.50;99.90;;;;;;5023711;28;20292;-57
2021/11/29 11:33:09;;;;;;;15.30;10.77;;;2.70;99.90;;;;;;5023148;28;20201;-53
2021/11/29 11:35:44;;;;;;;15.73;10.05;;;2.90;99.90;;;;;;5022501;28;20232;-58
2021/11/29 11:38:15;;;;;;;19.77;11.45;;;3.00;99.90;;;;;;5020257;28;20208;-51
2021/11/29 11:40:46;;;;;;;15.10;9.93;;;3.20;99.90;;;;;;5024344;28;20231;-54
2021/11/29 11:43:15;;;;;;;16.05;11.27;;;3.30;99.90;;;;;;5038794;28;20455;-53
2021/11/29 11:45:45;;;;;;;14.68;9.23;;;3.20;99.90;;;;;;5038615;28;20593;-56
2021/11/29 11:48:13;;;;;;;17.27;11.02;;;3.20;99.90;;;;;;5038384;28;20404;-52
2021/11/29 11:50:44;;;;;;;16.42;9.20;;;3.10;99.90;;;;;;5038988;28;20244;-52
2021/11/29 11:53:12;;;;;;;17.48;9.95;;;3.00;99.90;;;;;;5039676;28;20250;-56
2021/11/29 11:55:46;;;;;;;18.13;9.43;;;3.00;99.90;;;;;;5031062;28;20246;-58
2021/11/29 11:58:16;;;;;;;16.67;11.32;;;3.10;99.90;;;;;;5040354;28;20734;-55
2021/11/29 12:00:48;;;;;;;16.20;10.07;;;3.10;99.90;;;;;;5031520;28;20313;-51
2021/11/29 12:03:26;;;;;;;20.67;12.10;;;3.00;99.90;;;;;;5039020;28;20217;-52
2021/11/29 12:05:59;;;;;;;19.48;12.07;;;3.00;99.90;;;;;;5033092;28;20204;-58
2021/11/29 12:08:33;;;;;;;17.38;10.35;;;2.90;99.90;;;;;;5022106;28;20211;-53
2021/11/29 12:11:04;;;;;;;18.52;12.25;;;3.00;99.90;;;;;;5032944;28;20196;-54
2021/11/29 12:14:06;;;;;;;23.83;15.02;;;2.80;99.90;;;;;;5011677;28;20259;-51
2021/11/29 12:16:39;;;;;;;16.75;11.98;;;2.90;99.90;;;;;;5019749;28;20219;-53
2021/11/29 12:19:33;;;;;;;15.50;11.32;;;2.90;99.90;;;;;;5019516;28;20296;-58
2021/11/29 12:22:05;;;;;;;16.88;12.48;;;2.80;99.90;;;;;;5020920;28;20201;-52
2021/11/29 12:24:49;;;;;;;23.15;14.23;;;2.80;99.90;;;;;;5021793;28;20198;-54
2021/11/29 12:27:17;;;;;;;24.75;13.95;;;2.70;99.90;;;;;;5038791;28;20212;-53
2021/11/29 12:29:52;;;;;;;24.77;14.07;;;2.70;99.90;;;;;;5016043;28;20216;-58
2021/11/29 12:32:24;;;;;;;19.83;12.02;;;2.80;99.90;;;;;;5040574;28;20209;-53
2021/11/29 12:34:54;;;;;;;21.45;12.77;;;2.80;99.90;;;;;;5040819;28;20220;-52
2021/11/29 12:37:24;;;;;;;19.15;13.75;;;2.70;99.90;;;;;;5043941;28;20294;-55
2021/11/29 12:40:17;;;;;;;19.70;13.35;;;2.60;99.90;;;;;;5025505;28;20228;-52
2021/11/29 12:42:48;;;;;;;22.08;13.60;;;2.60;99.90;;;;;;5025579;28;20263;-52
2021/11/29 12:45:21;;;;;;;26.98;13.55;;;2.60;99.90;;;;;;5024651;28;20392;-55
2021/11/29 12:47:59;;;;;;;24.20;15.13;;;2.60;99.90;;;;;;5025085;28;20197;-54
2021/11/29 12:50:54;;;;;;;22.00;13.05;;;2.70;99.90;;;;;;5007285;28;20217;-54